»·PEaware :: N2322Y KSNA-KBUR

N2322Y :: KSNA-KBUR

FLIGHT INFORMATION

Flight Status: Arrived
Operator: Privately registered:
United States
More flights under this callsign
Pilot: Michael B. (9434)
Aircraft: CESSNA 172 SKYHAWK
(C172)
More flights by this aircraft type
Origin: KSNA John Wayne-Orange Co
United States
Destination: KBUR Bob Hope-Burbank
United States
More flights between these airports :: More routes between these airports
Route: +SLI V23 POPPR SMO125R SMO SMO311R SILEX
File this flight plan on PilotEdge
Remarks: I-3 RATING
Altitude:
(Current/Filed)
4,000ft
Speed:
(Current/Filed)
115kts
Departed: 12-Jan-18 12:05 PM
Arrived: 12-Jan-18 12:45 PM
Distance/Time
Traveled:
40nm/0:39
Distance/Time
To Go:
Arrived

Flight Plot

Page will automatically refresh every two minutes.


Map Options




Map Legend


Flown Route
Filed Route
Departure Airport
Arrival Airport
Navaid (VOR, NDB)
Fix

Horizontal Profiles

Position Reports

Time Latitude Longitude Heading Altitude Ground
Speed
12-Jan-18 12:02 33.676260 -117.870861 205 60ft 0kts
12-Jan-18 12:03 33.676260 -117.870861 205 60ft 0kts
12-Jan-18 12:04 33.676260 -117.870861 205 60ft 0kts
12-Jan-18 12:05 33.676260 -117.870861 205 60ft 0kts
12-Jan-18 12:06 33.676260 -117.870861 205 60ft 0kts
12-Jan-18 12:07 33.676196 -117.870888 194 60ft 3kts
12-Jan-18 12:08 33.678606 -117.868511 25 60ft 18kts
12-Jan-18 12:09 33.681241 -117.866459 111 60ft 0kts
12-Jan-18 12:10 33.681134 -117.866104 109 60ft 7kts
12-Jan-18 12:11 33.674769 -117.869417 211 231ft 68kts
12-Jan-18 12:12 33.663566 -117.882503 232 1108ft 72kts
12-Jan-18 12:13 33.647509 -117.905513 230 2002ft 109kts
12-Jan-18 12:14 33.630597 -117.930702 230 1980ft 116kts
12-Jan-18 12:15 33.608299 -117.963546 230 2734ft 105kts
12-Jan-18 12:16 33.592766 -117.985705 230 3390ft 103kts
12-Jan-18 12:17 33.577608 -118.014224 280 3984ft 113kts
12-Jan-18 12:18 33.600252 -118.042839 321 3972ft 118kts
12-Jan-18 12:19 33.624380 -118.067237 320 3984ft 114kts
12-Jan-18 12:20 33.648318 -118.091452 321 3980ft 111kts
12-Jan-18 12:21 33.671963 -118.115327 321 3980ft 111kts
12-Jan-18 12:22 33.695836 -118.139350 321 3982ft 112kts
12-Jan-18 12:23 33.719735 -118.163289 321 3982ft 111kts
12-Jan-18 12:24 33.743574 -118.187039 321 3982ft 111kts
12-Jan-18 12:25 33.767141 -118.210760 320 3981ft 110kts
12-Jan-18 12:26 33.790891 -118.234302 321 3982ft 110kts
12-Jan-18 12:27 33.814226 -118.258496 320 3982ft 110kts
12-Jan-18 12:28 33.837932 -118.282002 321 3983ft 111kts
12-Jan-18 12:29 33.860422 -118.306963 319 4032ft 109kts
12-Jan-18 12:30 33.883881 -118.330962 321 4035ft 111kts
12-Jan-18 12:31 33.907552 -118.354757 320 4035ft 111kts
12-Jan-18 12:32 33.931731 -118.378098 320 4034ft 111kts
12-Jan-18 12:33 33.955607 -118.401924 319 4032ft 111kts
12-Jan-18 12:34 33.979305 -118.425757 318 4029ft 111kts
12-Jan-18 12:35 34.003040 -118.449666 318 4028ft 111kts
12-Jan-18 12:36 34.028312 -118.471713 323 4007ft 112kts
12-Jan-18 12:37 34.054443 -118.492705 322 4006ft 113kts
12-Jan-18 12:38 34.080766 -118.513878 322 4033ft 112kts
12-Jan-18 12:39 34.106992 -118.535064 322 4042ft 114kts
12-Jan-18 12:40 34.133445 -118.556378 322 4044ft 114kts
12-Jan-18 12:41 34.159541 -118.577571 322 4043ft 112kts
12-Jan-18 12:42 34.184411 -118.597764 323 3988ft 106kts
12-Jan-18 12:43 34.198878 -118.582106 94 3440ft 121kts
12-Jan-18 12:44 34.198758 -118.544887 88 3024ft 95kts
12-Jan-18 12:45 34.198750 -118.513470 88 2993ft 102kts
12-Jan-18 12:46 34.198506 -118.479327 88 2514ft 99kts
12-Jan-18 12:47 34.198291 -118.446091 89 2026ft 98kts
12-Jan-18 12:48 34.198072 -118.413302 89 1581ft 86kts
12-Jan-18 12:49 34.198790 -118.390211 89 1208ft 70kts
12-Jan-18 12:50 34.197923 -118.368239 90 823ft 61kts
12-Jan-18 12:51 34.198530 -118.360376 356 781ft 0kts
12-Jan-18 12:52 34.199096 -118.360262 6 781ft 15kts

Navigation Log

Ident Type
Flight plan parsing failed, navigation log unavailable